Time;durP1;ratioP1;P1;durP2;ratioP2;P2;SDS_P1;SDS_P2;PMS_P1;PMS_P2;Temp;Humidity;BMP_temperature;BMP_pressure;BME280_temperature;BME280_humidity;BME280_pressure;Samples;Min_cycle;Max_cycle;Signal;HPM_P1;HPM_P2
2021/07/22 00:01:20;;;;;;;1.27;1.27;;;;;;;18.53;60.68;101781.81;5979483;29;20530;-75
2021/07/22 00:04:26;;;;;;;1.35;1.35;;;;;;;18.48;60.51;101778.13;5980881;29;20192;-75
2021/07/22 00:07:31;;;;;;;1.10;1.10;;;;;;;18.44;60.78;101777.72;5980468;29;20219;-76
2021/07/22 00:10:36;;;;;;;1.15;1.15;;;;;;;18.35;61.58;101772.84;5980304;29;20252;-76
2021/07/22 00:13:40;;;;;;;1.55;1.45;;;;;;;18.26;61.31;101766.03;5979387;29;20242;-76
2021/07/22 00:16:45;;;;;;;1.40;1.40;;;;;;;18.31;61.20;101771.66;5980557;29;20203;-76
2021/07/22 00:19:51;;;;;;;1.20;1.20;;;;;;;18.33;61.40;101770.34;5978770;29;20215;-76
2021/07/22 00:22:56;;;;;;;1.10;1.10;;;;;;;18.26;62.40;101766.84;5979873;29;20239;-75
2021/07/22 00:26:03;;;;;;;1.30;1.20;;;;;;;18.25;61.61;101770.72;5979285;29;20192;-75
2021/07/22 00:29:07;;;;;;;1.40;1.40;;;;;;;18.13;61.81;101769.91;5980222;29;20192;-75
2021/07/22 00:32:11;;;;;;;1.25;1.25;;;;;;;18.07;62.67;101762.59;5979261;29;20247;-75
2021/07/22 00:35:17;;;;;;;1.77;1.38;;;;;;;18.07;62.32;101765.38;5978686;29;20208;-75
2021/07/22 00:38:22;;;;;;;1.20;1.20;;;;;;;18.04;62.15;101776.91;5980113;29;20216;-75
2021/07/22 00:41:26;;;;;;;1.40;1.40;;;;;;;18.05;62.27;101773.06;5978247;29;20228;-75
2021/07/22 00:44:30;;;;;;;1.50;1.50;;;;;;;17.94;62.78;101771.16;5993351;29;20389;-76
2021/07/22 00:47:35;;;;;;;1.63;1.52;;;;;;;17.80;63.05;101775.25;5980091;29;20220;-76
2021/07/22 00:50:40;;;;;;;1.20;1.20;;;;;;;17.85;63.06;101772.59;5980093;29;20324;-76
2021/07/22 00:53:44;;;;;;;1.40;1.40;;;;;;;17.87;62.95;101770.47;5979859;29;20200;-76
2021/07/22 00:56:48;;;;;;;1.70;1.70;;;;;;;17.85;63.20;101769.84;5979900;29;20256;-75
2021/07/22 00:59:56;;;;;;;3.72;1.95;;;;;;;17.89;62.79;101768.28;5980096;29;20200;-75
2021/07/22 01:03:00;;;;;;;1.30;1.30;;;;;;;17.73;62.74;101769.03;5991017;24;20357;-75
2021/07/22 01:06:06;;;;;;;1.40;1.40;;;;;;;17.81;62.79;101776.94;5978604;29;20213;-74
2021/07/22 01:09:10;;;;;;;1.50;1.50;;;;;;;17.77;63.55;101760.00;5978453;29;20215;-74
2021/07/22 01:12:20;;;;;;;2.47;1.30;;;;;;;17.71;63.31;101771.19;5977871;29;20232;-74
2021/07/22 01:15:24;;;;;;;1.58;1.48;;;;;;;17.69;63.24;101770.59;5979832;29;20256;-75
2021/07/22 01:18:28;;;;;;;1.55;1.52;;;;;;;17.66;63.69;101762.81;5978551;29;20200;-75
2021/07/22 01:21:34;;;;;;;1.70;1.70;;;;;;;17.72;63.09;101761.84;5978816;29;20197;-75
2021/07/22 01:24:40;;;;;;;1.40;1.40;;;;;;;17.66;63.26;101763.66;5978667;29;20272;-74
2021/07/22 01:27:47;;;;;;;1.73;1.65;;;;;;;17.55;63.83;101766.41;5978087;29;20525;-74
2021/07/22 01:30:51;;;;;;;2.80;1.50;;;;;;;17.60;63.44;101764.59;5978530;29;20524;-74
2021/07/22 01:33:56;;;;;;;1.95;1.50;;;;;;;17.55;63.80;101758.13;5980015;29;20208;-75
2021/07/22 01:37:04;;;;;;;1.50;1.50;;;;;;;17.54;63.90;101759.22;5984055;29;20266;-75
2021/07/22 01:40:14;;;;;;;1.95;1.40;;;;;;;17.48;64.02;101759.06;5982680;29;20392;-74
2021/07/22 01:43:19;;;;;;;2.10;1.42;;;;;;;17.49;63.92;101763.50;5983813;29;20218;-75
2021/07/22 01:46:27;;;;;;;1.60;1.60;;;;;;;17.52;63.10;101756.66;5983598;29;20260;-74
2021/07/22 01:49:32;;;;;;;1.50;1.50;;;;;;;17.45;63.82;101745.75;5983390;29;20197;-74
2021/07/22 01:52:38;;;;;;;1.65;1.65;;;;;;;17.40;64.10;101753.91;5982452;29;20237;-74
2021/07/22 01:55:43;;;;;;;1.73;1.63;;;;;;;17.45;64.09;101756.78;5982122;29;20216;-74
2021/07/22 01:58:48;;;;;;;2.47;1.55;;;;;;;17.38;64.50;101761.56;5982092;29;20227;-74
2021/07/22 02:01:56;;;;;;;1.30;1.30;;;;;;;17.42;64.77;101760.03;5981411;29;20558;-75
2021/07/22 02:05:11;;;;;;;1.60;1.60;;;;;;;17.39;64.47;101763.25;5981640;29;20235;-74
2021/07/22 02:08:17;;;;;;;3.03;1.40;;;;;;;17.40;64.31;101759.44;5981896;29;20347;-75
2021/07/22 02:11:23;;;;;;;3.25;2.65;;;;;;;17.45;64.25;101767.81;5981822;29;20260;-75
2021/07/22 02:14:28;;;;;;;1.42;1.42;;;;;;;17.36;64.51;101752.69;5981232;29;20321;-75
2021/07/22 02:17:35;;;;;;;2.17;1.90;;;;;;;17.38;65.09;101756.03;5982220;29;20208;-74
2021/07/22 02:20:39;;;;;;;1.70;1.60;;;;;;;17.40;64.19;101756.66;5981942;29;20273;-74
2021/07/22 02:23:45;;;;;;;1.98;1.45;;;;;;;17.41;64.27;101761.09;5980974;29;20219;-74
2021/07/22 02:26:56;;;;;;;1.67;1.58;;;;;;;17.43;64.38;101747.91;5981309;29;20502;-74
2021/07/22 02:30:00;;;;;;;3.28;1.73;;;;;;;17.43;64.43;101764.47;5981663;29;20429;-74
2021/07/22 02:33:08;;;;;;;1.60;1.50;;;;;;;17.37;64.79;101754.38;5981697;29;20418;-75
2021/07/22 02:36:13;;;;;;;2.30;2.10;;;;;;;17.36;65.46;101752.69;5981483;29;20392;-74
2021/07/22 02:39:38;;;;;;;1.40;1.40;;;;;;;17.40;65.25;101744.78;5980848;29;20209;-74
2021/07/22 02:42:43;;;;;;;2.63;1.83;;;;;;;17.39;65.34;101752.22;5980557;29;20279;-75
2021/07/22 02:45:52;;;;;;;1.65;1.65;;;;;;;17.46;65.66;101747.41;5980468;29;20488;-75
2021/07/22 02:48:58;;;;;;;6.85;1.70;;;;;;;17.48;65.54;101742.50;5982376;29;20229;-74
2021/07/22 02:52:05;;;;;;;1.80;1.50;;;;;;;17.41;65.97;101750.06;5981664;29;20533;-74
2021/07/22 02:55:13;;;;;;;4.82;1.75;;;;;;;17.47;65.99;101738.06;5981149;29;20506;-74
2021/07/22 02:58:18;;;;;;;1.42;1.42;;;;;;;17.49;65.88;101746.09;5980329;29;20455;-74
2021/07/22 03:01:22;;;;;;;1.92;1.80;;;;;;;17.46;65.90;101741.88;5980219;29;20297;-74
2021/07/22 03:04:30;;;;;;;2.70;1.73;;;;;;;17.57;65.86;101743.00;5979850;29;20539;-74
2021/07/22 03:07:49;;;;;;;1.70;1.60;;;;;;;17.54;65.90;101732.44;5995310;29;20271;-75
2021/07/22 03:10:55;;;;;;;3.33;1.77;;;;;;;17.58;65.80;101743.84;5980819;29;20359;-74
2021/07/22 03:14:01;;;;;;;6.70;1.83;;;;;;;17.58;66.33;101743.84;5995620;29;20341;-75
2021/07/22 03:17:08;;;;;;;4.13;1.80;;;;;;;17.56;67.02;101734.97;5980751;29;20285;-74
2021/07/22 03:20:20;;;;;;;2.80;1.70;;;;;;;17.58;66.90;101732.81;5980070;29;20334;-75
2021/07/22 03:23:29;;;;;;;4.38;2.00;;;;;;;17.63;66.47;101724.66;5979391;29;20212;-75
2021/07/22 03:26:35;;;;;;;1.90;1.80;;;;;;;17.72;66.17;101720.44;5995542;29;20208;-75
2021/07/22 03:29:39;;;;;;;3.45;1.95;;;;;;;17.73;66.13;101719.34;5979513;29;20326;-74
2021/07/22 03:32:43;;;;;;;1.55;1.52;;;;;;;17.76;65.89;101713.34;5981503;29;20289;-74
2021/07/22 03:35:49;;;;;;;2.35;2.00;;;;;;;17.82;65.46;101717.91;5980322;29;20209;-74
2021/07/22 03:38:55;;;;;;;2.15;2.00;;;;;;;17.91;65.09;101727.47;5980242;29;20216;-75
2021/07/22 03:42:14;;;;;;;1.88;1.83;;;;;;;17.95;65.25;101725.91;5981471;29;20220;-74
2021/07/22 03:45:37;;;;;;;2.03;2.03;;;;;;;17.97;65.25;101715.47;5981489;29;20216;-75
2021/07/22 03:48:42;;;;;;;4.30;1.90;;;;;;;17.98;65.40;101717.13;5981087;29;20193;-75
2021/07/22 03:51:47;;;;;;;3.85;2.00;;;;;;;18.06;65.24;101719.50;5979525;29;20419;-75
2021/07/22 03:54:52;;;;;;;4.78;2.00;;;;;;;18.11;64.95;101716.84;5979579;29;20315;-76
2021/07/22 03:57:58;;;;;;;6.10;2.10;;;;;;;18.13;64.96;101709.97;5978780;29;20231;-75
2021/07/22 04:01:06;;;;;;;1.88;1.80;;;;;;;18.14;64.93;101714.44;5993805;29;20348;-75
2021/07/22 04:04:11;;;;;;;2.13;1.85;;;;;;;18.22;64.57;101718.72;5979902;29;20293;-75
2021/07/22 04:07:16;;;;;;;2.47;2.28;;;;;;;18.28;64.30;101709.47;5978913;29;20275;-75
2021/07/22 04:10:39;;;;;;;1.85;1.77;;;;;;;18.32;64.54;101707.88;5979989;29;20229;-75
2021/07/22 04:14:01;;;;;;;2.10;1.98;;;;;;;18.28;65.15;101712.22;5978643;29;20300;-75
2021/07/22 04:17:13;;;;;;;1.90;1.80;;;;;;;18.34;65.37;101708.47;5978826;29;20503;-75
2021/07/22 04:20:36;;;;;;;3.08;1.88;;;;;;;18.38;64.89;101706.06;5980258;29;20193;-74
2021/07/22 04:23:58;;;;;;;1.95;1.95;;;;;;;18.43;64.61;101704.22;5979769;29;20228;-75
2021/07/22 04:27:14;;;;;;;1.88;1.88;;;;;;;18.44;65.20;101708.66;5978525;29;20519;-75
2021/07/22 04:30:25;;;;;;;3.35;1.85;;;;;;;18.52;64.51;101712.97;5979363;29;20240;-75
2021/07/22 04:33:48;;;;;;;1.98;1.88;;;;;;;18.54;64.62;101706.09;5979217;29;20221;-75
2021/07/22 04:37:11;;;;;;;2.35;1.85;;;;;;;18.59;64.52;101703.44;5978480;29;20209;-75
2021/07/22 04:40:40;;;;;;;3.42;1.95;;;;;;;18.57;65.16;101711.13;5954573;29;20208;-75
2021/07/22 04:44:08;;;;;;;1.88;1.88;;;;;;;18.63;65.16;101701.84;5954464;29;20400;-75
2021/07/22 04:47:33;;;;;;;2.15;1.95;;;;;;;18.71;64.50;101706.97;5979299;29;20276;-75
2021/07/22 04:50:37;;;;;;;2.00;1.85;;;;;;;18.70;65.03;101709.97;5979572;29;20255;-75
2021/07/22 04:54:04;;;;;;;2.13;1.88;;;;;;;18.82;64.75;101701.63;5978907;29;20224;-75
2021/07/22 04:57:10;;;;;;;2.72;2.10;;;;;;;18.90;64.70;101692.91;5979199;29;20197;-75
2021/07/22 05:00:18;;;;;;;6.38;2.30;;;;;;;18.92;65.16;101696.25;5979161;29;20209;-75
2021/07/22 05:03:28;;;;;;;5.72;2.00;;;;;;;18.93;65.49;101695.16;5979634;29;20240;-74
2021/07/22 05:06:34;;;;;;;1.92;1.83;;;;;;;18.97;65.43;101680.59;5979403;29;20283;-75
2021/07/22 05:10:01;;;;;;;1.95;1.77;;;;;;;19.05;64.96;101684.88;5978863;29;20554;-75
2021/07/22 05:13:16;;;;;;;4.97;2.20;;;;;;;19.03;65.04;101684.28;5983322;29;20588;-75
2021/07/22 05:16:53;;;;;;;2.08;2.00;;;;;;;19.12;64.69;101680.00;5974229;29;20485;-75
2021/07/22 05:20:22;;;;;;;2.60;1.95;;;;;;;19.20;64.62;101676.78;5982269;29;20518;-75
2021/07/22 05:23:33;;;;;;;1.90;1.90;;;;;;;19.23;64.76;101681.81;5984549;29;20261;-75
2021/07/22 05:26:49;;;;;;;1.92;1.92;;;;;;;19.33;64.57;101670.91;5982341;29;20212;-75
2021/07/22 05:30:13;;;;;;;2.47;1.92;;;;;;;19.31;64.90;101673.09;5983251;29;20551;-75
2021/07/22 05:33:57;;;;;;;3.45;2.38;;;;;;;19.44;64.52;101683.00;5973644;29;20244;-75
2021/07/22 05:37:23;;;;;;;3.22;2.30;;;;;;;19.48;64.87;101667.53;5984083;29;20215;-75
2021/07/22 05:40:32;;;;;;;2.20;2.00;;;;;;;19.51;64.44;101662.34;5983164;29;20193;-75
2021/07/22 05:43:37;;;;;;;2.47;2.38;;;;;;;19.62;65.16;101658.59;5983681;29;20214;-75
2021/07/22 05:46:41;;;;;;;2.22;2.17;;;;;;;19.80;65.96;101658.28;5983617;29;20299;-75
2021/07/22 05:49:45;;;;;;;2.40;2.30;;;;;;;19.97;65.33;101661.81;5983512;29;20225;-75
2021/07/22 05:52:50;;;;;;;3.47;2.38;;;;;;;20.08;64.97;101661.94;5982776;29;20193;-75
2021/07/22 05:55:57;;;;;;;4.53;2.30;;;;;;;20.23;64.55;101662.09;5983322;29;20227;-75
2021/07/22 05:59:02;;;;;;;2.45;2.35;;;;;;;20.37;63.18;101660.59;5982263;29;20539;-75
2021/07/22 06:02:07;;;;;;;2.28;2.03;;;;;;;20.53;63.04;101662.41;5981017;29;20297;-75
2021/07/22 06:05:12;;;;;;;2.20;2.20;;;;;;;20.66;62.10;101659.22;5983384;29;20204;-76
2021/07/22 06:08:18;;;;;;;2.90;2.45;;;;;;;20.79;63.88;101658.78;5982779;29;20200;-75
2021/07/22 06:11:22;;;;;;;2.60;2.50;;;;;;;20.97;62.49;101665.84;5983208;29;20193;-75
2021/07/22 06:14:26;;;;;;;2.30;2.20;;;;;;;21.02;61.77;101652.84;5982908;29;20279;-76
2021/07/22 06:17:30;;;;;;;2.38;2.38;;;;;;;21.08;61.07;101651.00;5983237;29;20256;-75
2021/07/22 06:20:35;;;;;;;2.35;2.28;;;;;;;21.17;61.72;101653.00;5982396;29;20199;-75
2021/07/22 06:23:40;;;;;;;4.97;2.20;;;;;;;21.35;61.15;101656.41;5980886;29;20220;-75
2021/07/22 06:26:45;;;;;;;3.95;2.50;;;;;;;21.53;61.26;101636.53;5981844;29;20285;-75
2021/07/22 06:29:50;;;;;;;3.33;2.40;;;;;;;21.65;61.51;101651.84;5983006;29;20189;-75
2021/07/22 06:32:54;;;;;;;2.38;2.17;;;;;;;21.73;61.54;101647.72;5981638;29;20464;-75
2021/07/22 06:35:58;;;;;;;3.63;2.20;;;;;;;21.86;60.69;101647.25;5982785;29;20216;-75
2021/07/22 06:39:04;;;;;;;2.42;2.33;;;;;;;21.87;59.47;101643.38;5982232;29;20192;-76
2021/07/22 06:42:10;;;;;;;2.10;2.00;;;;;;;21.90;58.58;101642.84;5982710;29;20267;-76
2021/07/22 06:45:14;;;;;;;2.25;1.98;;;;;;;22.05;58.16;101634.53;5982278;29;20264;-76
2021/07/22 06:48:18;;;;;;;2.20;2.08;;;;;;;22.18;58.34;101634.03;5982543;29;20193;-76
2021/07/22 06:51:24;;;;;;;2.13;2.00;;;;;;;22.27;57.97;101634.28;5982226;29;20236;-75
2021/07/22 06:54:30;;;;;;;2.17;2.00;;;;;;;22.27;57.38;101640.69;5982072;29;20285;-77
2021/07/22 06:57:34;;;;;;;2.60;2.20;;;;;;;22.32;57.26;101646.25;5982533;29;20193;-76
2021/07/22 07:00:39;;;;;;;2.20;2.10;;;;;;;22.49;56.59;101647.97;5981096;29;20293;-76
2021/07/22 07:03:43;;;;;;;1.92;1.90;;;;;;;22.55;55.78;101638.50;5981577;29;20305;-76
2021/07/22 07:06:47;;;;;;;2.38;1.98;;;;;;;22.67;55.52;101636.31;5981858;29;20238;-76
2021/07/22 07:09:53;;;;;;;2.17;2.08;;;;;;;22.76;54.52;101634.63;5980921;29;20194;-76
2021/07/22 07:12:58;;;;;;;2.58;1.92;;;;;;;22.84;54.50;101636.88;5982045;29;20200;-76
2021/07/22 07:16:05;;;;;;;2.45;1.70;;;;;;;22.89;53.44;101632.13;5981129;29;20248;-76
2021/07/22 07:19:09;;;;;;;2.08;1.98;;;;;;;22.98;53.15;101624.06;5981420;29;20193;-76
2021/07/22 07:22:16;;;;;;;3.78;2.22;;;;;;;22.98;53.49;101621.28;5980965;29;20218;-76
2021/07/22 07:25:22;;;;;;;5.18;2.20;;;;;;;23.04;53.25;101620.13;5994850;29;20402;-76
2021/07/22 07:28:27;;;;;;;1.83;1.73;;;;;;;23.13;52.96;101621.25;5981378;29;20278;-76
2021/07/22 07:31:31;;;;;;;2.58;1.98;;;;;;;23.12;51.25;101611.22;5980321;29;20447;-76
2021/07/22 07:34:37;;;;;;;1.77;1.75;;;;;;;23.24;50.34;101608.94;5980228;29;20446;-76
2021/07/22 07:37:42;;;;;;;2.00;2.00;;;;;;;23.34;49.90;101611.69;5980415;29;20268;-76
2021/07/22 07:40:48;;;;;;;5.90;1.80;;;;;;;23.42;48.71;101602.00;5980246;29;20391;-76
2021/07/22 07:43:53;;;;;;;2.08;1.80;;;;;;;23.46;48.07;101600.28;5981181;29;20225;-75
2021/07/22 07:46:57;;;;;;;1.83;1.73;;;;;;;23.55;47.59;101610.56;5981402;29;20247;-75
2021/07/22 07:50:02;;;;;;;1.90;1.80;;;;;;;23.47;48.12;101608.34;5979970;29;20480;-75
2021/07/22 07:53:16;;;;;;;3.22;1.70;;;;;;;23.58;46.74;101603.56;5980803;29;20225;-75
2021/07/22 07:56:21;;;;;;;2.05;1.80;;;;;;;23.70;46.80;101606.06;5979668;29;20233;-77
2021/07/22 07:59:25;;;;;;;2.25;2.13;;;;;;;23.75;47.37;101614.38;5979698;29;20282;-74
2021/07/22 08:02:30;;;;;;;1.90;1.80;;;;;;;23.66;45.97;101606.63;5980274;29;20242;-75
2021/07/22 08:05:34;;;;;;;2.15;2.00;;;;;;;23.80;47.02;101603.22;5979621;29;20485;-75
2021/07/22 08:08:40;;;;;;;1.80;1.80;;;;;;;23.77;47.70;101601.84;5979870;29;20193;-75
2021/07/22 08:11:45;;;;;;;3.35;2.03;;;;;;;23.86;46.51;101599.25;5980713;29;20273;-74
2021/07/22 08:14:50;;;;;;;2.10;2.00;;;;;;;23.88;45.83;101597.03;5980325;29;20235;-75
2021/07/22 08:17:54;;;;;;;1.77;1.77;;;;;;;23.87;44.69;101592.56;5979320;29;20193;-75
2021/07/22 08:20:58;;;;;;;1.90;1.90;;;;;;;23.83;44.43;101583.13;5980655;29;20200;-75
2021/07/22 08:24:03;;;;;;;1.90;1.90;;;;;;;23.88;44.80;101577.53;5979089;29;20193;-75
2021/07/22 08:27:08;;;;;;;3.20;2.15;;;;;;;23.85;43.73;101581.72;5980241;29;20235;-75
2021/07/22 08:30:14;;;;;;;2.00;1.90;;;;;;;23.89;44.50;101568.03;5980770;29;20200;-75
2021/07/22 08:33:18;;;;;;;2.10;2.00;;;;;;;23.89;45.02;101570.81;5980301;29;20211;-76
2021/07/22 08:36:22;;;;;;;1.80;1.80;;;;;;;23.86;44.63;101568.59;5979206;29;20292;-76
2021/07/22 08:39:26;;;;;;;2.92;1.90;;;;;;;23.88;44.46;101564.41;5980322;29;20295;-76
2021/07/22 08:42:36;;;;;;;5.13;1.88;;;;;;;23.87;43.14;101567.50;5979669;29;20193;-77
2021/07/22 08:45:40;;;;;;;3.33;1.70;;;;;;;23.94;44.07;101562.44;5978888;29;20398;-75
2021/07/22 08:48:51;;;;;;;1.70;1.70;;;;;;;23.92;43.43;101553.53;5978891;29;20253;-75
2021/07/22 08:51:56;;;;;;;2.03;1.88;;;;;;;23.92;44.05;101547.97;5979899;29;20225;-75
2021/07/22 08:55:01;;;;;;;1.60;1.60;;;;;;;23.96;43.51;101549.06;5980270;29;20196;-75
2021/07/22 08:58:07;;;;;;;2.80;1.83;;;;;;;23.87;42.63;101550.78;5979646;29;20560;-75
2021/07/22 09:01:15;;;;;;;1.70;1.70;;;;;;;23.93;44.00;101538.47;5980283;29;20231;-75
2021/07/22 09:04:20;;;;;;;2.25;2.15;;;;;;;23.92;43.00;101542.38;5979574;29;20243;-74
2021/07/22 09:07:24;;;;;;;2.17;2.00;;;;;;;23.89;42.94;101537.38;5979961;29;20197;-76
2021/07/22 09:10:29;;;;;;;2.72;2.10;;;;;;;23.90;43.31;101533.47;5979021;29;20234;-76
2021/07/22 09:13:37;;;;;;;1.70;1.70;;;;;;;23.95;41.61;101534.28;5979244;29;20199;-77
2021/07/22 09:16:42;;;;;;;3.40;2.00;;;;;;;24.04;42.92;101534.47;5977839;29;20299;-76
2021/07/22 09:19:46;;;;;;;4.03;1.95;;;;;;;23.99;43.90;101540.94;5979674;29;20285;-76
2021/07/22 09:22:50;;;;;;;3.95;2.22;;;;;;;24.06;44.04;101527.50;5979877;29;20201;-76
2021/07/22 09:25:56;;;;;;;5.88;1.70;;;;;;;24.03;41.87;101521.69;5978624;29;20213;-76
2021/07/22 09:29:09;;;;;;;2.17;1.90;;;;;;;23.96;42.24;101523.97;5978593;29;20262;-75
2021/07/22 09:32:14;;;;;;;2.30;2.05;;;;;;;24.10;42.63;101522.22;5978593;29;20386;-75
2021/07/22 09:35:21;;;;;;;2.17;2.05;;;;;;;24.08;43.03;101521.69;5979339;29;20193;-75
2021/07/22 09:38:27;;;;;;;1.77;1.77;;;;;;;24.08;43.54;101530.03;5979452;29;20276;-75
2021/07/22 09:41:32;;;;;;;8.25;2.10;;;;;;;24.07;42.24;101531.13;5979706;29;20276;-76
2021/07/22 09:44:38;;;;;;;4.45;2.13;;;;;;;24.18;43.03;101519.66;5979746;29;20224;-75
2021/07/22 09:47:43;;;;;;;6.70;2.00;;;;;;;24.22;43.63;101537.44;5978807;29;20228;-75
2021/07/22 09:50:47;;;;;;;1.92;1.83;;;;;;;24.18;41.98;101518.81;5993113;29;20448;-75
2021/07/22 09:54:09;;;;;;;2.00;1.90;;;;;;;24.27;42.38;101519.84;5979900;29;20260;-75
2021/07/22 09:57:15;;;;;;;2.80;2.08;;;;;;;24.21;43.31;101523.81;5983363;29;20292;-75
2021/07/22 10:00:23;;;;;;;1.98;1.98;;;;;;;24.29;42.01;101517.59;5983491;29;20200;-75
2021/07/22 10:03:29;;;;;;;2.22;2.17;;;;;;;24.28;41.41;101519.56;5982557;29;20249;-74
2021/07/22 10:06:36;;;;;;;3.03;1.98;;;;;;;24.28;41.09;101513.16;5983125;29;20358;-75
2021/07/22 10:09:42;;;;;;;2.10;2.10;;;;;;;24.24;42.41;101518.47;5982010;29;20290;-75
2021/07/22 10:12:52;;;;;;;3.80;2.30;;;;;;;24.31;42.32;101512.56;5981115;29;20570;-75
2021/07/22 10:16:01;;;;;;;2.72;1.73;;;;;;;24.32;42.01;101518.97;5982899;29;20260;-76
2021/07/22 10:19:05;;;;;;;3.00;2.20;;;;;;;24.36;42.18;101518.09;5982985;29;20193;-76
2021/07/22 10:22:10;;;;;;;2.45;1.92;;;;;;;24.36;42.41;101501.38;5983308;29;20193;-76
2021/07/22 10:25:16;;;;;;;1.92;1.80;;;;;;;24.36;41.56;101509.72;5982065;29;20193;-76
2021/07/22 10:28:20;;;;;;;2.85;1.92;;;;;;;24.38;40.54;101507.47;5981832;29;20253;-76
2021/07/22 10:31:29;;;;;;;3.58;2.08;;;;;;;24.44;41.76;101506.31;5981604;29;20244;-76
2021/07/22 10:34:35;;;;;;;3.60;2.10;;;;;;;24.48;40.90;101507.38;5981758;29;20197;-76
2021/07/22 10:38:03;;;;;;;4.47;1.83;;;;;;;24.55;38.22;101502.28;5981574;29;20299;-75
2021/07/22 10:41:08;;;;;;;2.05;2.05;;;;;;;24.60;39.01;101504.22;5981740;29;20260;-75
2021/07/22 10:44:32;;;;;;;3.97;2.00;;;;;;;24.68;39.12;101496.00;5981130;29;20244;-76
2021/07/22 10:48:01;;;;;;;3.83;2.10;;;;;;;24.72;40.32;101491.53;5981114;29;20546;-76
2021/07/22 10:51:07;;;;;;;2.47;1.80;;;;;;;24.77;40.34;101499.84;5982379;29;20200;-76
2021/07/22 10:54:48;;;;;;;1.85;1.85;;;;;;;24.76;39.67;101492.59;5982365;29;20193;-76
2021/07/22 10:57:52;;;;;;;5.38;2.15;;;;;;;24.87;40.71;101483.00;5982015;29;20248;-76
2021/07/22 11:00:57;;;;;;;2.05;2.05;;;;;;;24.89;40.61;101475.16;5982113;29;20200;-76
2021/07/22 11:04:02;;;;;;;2.50;2.35;;;;;;;24.98;39.89;101477.31;5981479;29;20306;-76
2021/07/22 11:07:23;;;;;;;2.88;2.13;;;;;;;25.05;39.24;101477.75;5981963;29;20205;-75
2021/07/22 11:10:53;;;;;;;2.47;2.38;;;;;;;25.13;40.07;101468.72;5981157;29;20197;-75
2021/07/22 11:13:57;;;;;;;2.00;2.00;;;;;;;25.15;39.62;101469.25;5980958;29;20426;-76
2021/07/22 11:17:02;;;;;;;2.47;2.10;;;;;;;25.20;39.29;101466.41;5980788;29;20260;-76
2021/07/22 11:20:34;;;;;;;1.73;1.73;;;;;;;25.19;38.07;101461.97;5981643;29;20204;-76
2021/07/22 11:23:40;;;;;;;1.88;1.88;;;;;;;25.27;37.56;101453.72;5949622;29;20508;-76
2021/07/22 11:26:52;;;;;;;5.55;2.50;;;;;;;25.37;37.90;101447.19;5979552;29;20212;-76
2021/07/22 11:30:09;;;;;;;2.60;2.00;;;;;;;25.42;37.37;101450.72;5980841;29;20224;-76
2021/07/22 11:33:17;;;;;;;2.55;2.33;;;;;;;25.45;37.48;101449.28;5981649;29;20194;-76
2021/07/22 11:36:26;;;;;;;2.55;2.35;;;;;;;25.49;37.11;101444.81;5981586;29;20200;-76
2021/07/22 11:39:34;;;;;;;2.15;2.05;;;;;;;25.52;37.18;101438.63;5980490;29;20224;-76
2021/07/22 11:42:48;;;;;;;4.40;2.33;;;;;;;25.60;36.94;101439.91;5981571;29;20273;-75
2021/07/22 11:45:53;;;;;;;2.15;2.05;;;;;;;25.74;38.27;101430.44;5981136;29;20200;-76
2021/07/22 11:48:57;;;;;;;2.15;2.00;;;;;;;25.76;37.40;101428.16;5981080;29;20196;-76
2021/07/22 11:52:02;;;;;;;2.25;2.17;;;;;;;25.81;36.87;101430.88;5980211;29;20233;-76
2021/07/22 11:55:09;;;;;;;1.98;1.70;;;;;;;25.86;37.16;101427.19;5980208;29;20209;-76
2021/07/22 11:58:16;;;;;;;1.88;1.88;;;;;;;25.93;36.67;101420.06;5979825;29;20524;-76
2021/07/22 12:01:22;;;;;;;5.22;2.40;;;;;;;26.08;37.54;101419.81;5979911;29;20380;-76
2021/07/22 12:04:29;;;;;;;2.55;2.40;;;;;;;26.09;37.11;101415.84;5979917;29;20319;-76
2021/07/22 12:07:33;;;;;;;3.28;2.20;;;;;;;26.20;36.93;101410.09;5981158;29;20219;-75
2021/07/22 12:10:37;;;;;;;5.82;2.38;;;;;;;26.24;38.31;101416.75;5980937;29;20193;-76
2021/07/22 12:13:53;;;;;;;2.30;2.20;;;;;;;26.30;38.45;101401.53;5980831;29;20250;-76
2021/07/22 12:17:01;;;;;;;2.60;2.35;;;;;;;26.34;37.34;101399.78;5979108;29;20198;-76
2021/07/22 12:20:07;;;;;;;2.90;2.58;;;;;;;26.39;37.21;101402.50;5981097;29;20224;-76
2021/07/22 12:23:29;;;;;;;2.42;2.33;;;;;;;26.47;36.61;101407.38;5979093;29;20204;-76
2021/07/22 12:26:38;;;;;;;2.35;2.35;;;;;;;26.56;36.67;101397.09;5979238;29;20216;-76
2021/07/22 12:29:47;;;;;;;2.67;2.50;;;;;;;26.60;37.00;101393.38;5980943;29;20264;-75
2021/07/22 12:32:52;;;;;;;3.97;2.60;;;;;;;26.56;37.33;101385.91;5980241;29;20197;-76
2021/07/22 12:35:56;;;;;;;2.60;2.50;;;;;;;26.64;36.73;101393.59;5980763;29;20232;-76
2021/07/22 12:39:18;;;;;;;2.92;2.72;;;;;;;26.69;36.75;101390.69;5980465;29;20287;-76
2021/07/22 12:42:22;;;;;;;2.78;2.60;;;;;;;26.81;37.51;101388.22;5978745;29;20209;-76
2021/07/22 12:45:28;;;;;;;3.33;2.53;;;;;;;26.79;36.58;101384.91;5980560;29;20224;-76
2021/07/22 12:48:37;;;;;;;3.00;2.80;;;;;;;26.81;37.15;101385.41;5978583;29;20216;-75
2021/07/22 12:51:43;;;;;;;5.15;2.83;;;;;;;26.95;37.25;101377.84;5980472;29;20290;-75
2021/07/22 12:54:50;;;;;;;3.80;2.47;;;;;;;26.98;37.52;101366.00;5978836;29;20197;-76
2021/07/22 12:57:54;;;;;;;2.90;2.70;;;;;;;26.92;36.65;101372.84;5980101;29;20227;-75
2021/07/22 13:01:05;;;;;;;3.25;2.97;;;;;;;27.03;36.21;101363.09;5980468;29;20229;-76
2021/07/22 13:04:12;;;;;;;2.42;2.33;;;;;;;27.09;37.42;101359.03;5980056;29;20523;-75
2021/07/22 13:07:16;;;;;;;2.95;2.67;;;;;;;27.19;36.59;101353.22;5980123;29;20199;-75
2021/07/22 13:10:22;;;;;;;6.85;2.78;;;;;;;27.20;36.11;101357.66;5979008;29;20197;-75
2021/07/22 13:13:29;;;;;;;3.70;2.70;;;;;;;27.27;36.13;101341.22;5978854;29;20193;-75
2021/07/22 13:16:35;;;;;;;3.00;2.80;;;;;;;27.33;36.85;101336.34;5979185;29;20228;-75
2021/07/22 13:19:39;;;;;;;2.95;2.72;;;;;;;27.40;37.40;101338.75;5978610;29;20221;-75
2021/07/22 13:22:43;;;;;;;3.03;2.92;;;;;;;27.47;37.18;101339.13;5978930;29;20492;-75
2021/07/22 13:25:48;;;;;;;2.83;2.58;;;;;;;27.49;36.79;101339.63;5978854;29;20193;-75
2021/07/22 13:28:52;;;;;;;2.53;2.53;;;;;;;27.38;35.87;101332.56;5980231;29;20248;-75
2021/07/22 13:31:57;;;;;;;2.50;2.50;;;;;;;27.39;34.72;101331.44;5984322;29;20345;-75
2021/07/22 13:35:03;;;;;;;2.72;2.63;;;;;;;27.44;35.85;101339.75;5984231;29;20193;-75
2021/07/22 13:38:09;;;;;;;3.13;3.03;;;;;;;27.45;35.34;101325.44;5983900;29;20217;-75
2021/07/22 13:41:14;;;;;;;3.10;2.70;;;;;;;27.59;36.16;101347.78;5983675;29;20193;-76
2021/07/22 13:44:20;;;;;;;3.10;3.00;;;;;;;28.55;35.90;101327.22;5983137;29;20480;-75
2021/07/22 13:47:25;;;;;;;3.53;3.22;;;;;;;29.07;34.77;101321.75;5983603;29;20266;-75
2021/07/22 13:50:29;;;;;;;4.00;2.90;;;;;;;29.28;33.99;101308.69;5983894;29;20197;-75
2021/07/22 13:53:35;;;;;;;3.20;3.00;;;;;;;29.08;34.72;101323.38;5983709;29;20200;-75
2021/07/22 13:56:40;;;;;;;3.45;3.03;;;;;;;28.68;35.73;101313.41;5983657;29;20274;-75
2021/07/22 13:59:44;;;;;;;3.40;3.10;;;;;;;28.54;36.54;101319.94;5982291;29;20241;-75
2021/07/22 14:02:54;;;;;;;3.60;3.35;;;;;;;28.43;37.27;101312.97;5982652;29;20245;-75
2021/07/22 14:05:58;;;;;;;3.35;3.15;;;;;;;28.25;37.64;101311.25;5983550;29;20212;-75
2021/07/22 14:09:03;;;;;;;3.25;3.15;;;;;;;28.17;37.28;101295.19;5983501;29;20204;-75
2021/07/22 14:12:10;;;;;;;4.60;3.35;;;;;;;28.24;37.65;101300.38;5982922;29;20193;-76
2021/07/22 14:15:14;;;;;;;3.15;3.05;;;;;;;28.30;38.04;101296.28;5981661;29;20215;-75
2021/07/22 14:18:20;;;;;;;3.42;3.22;;;;;;;28.38;38.34;101296.28;5983252;29;20193;-75
2021/07/22 14:21:24;;;;;;;3.28;3.17;;;;;;;28.29;38.75;101295.44;5982328;29;20224;-75
2021/07/22 14:24:28;;;;;;;3.38;3.17;;;;;;;28.29;38.29;101289.81;5982954;29;20200;-75
2021/07/22 14:27:32;;;;;;;3.92;3.10;;;;;;;28.18;39.30;101288.44;5983321;29;20193;-75
2021/07/22 14:30:39;;;;;;;4.90;3.70;;;;;;;28.33;39.09;101285.19;5982908;29;20197;-75
2021/07/22 14:33:45;;;;;;;5.35;3.40;;;;;;;28.32;40.02;101282.72;5982082;29;20194;-75